createdAt,value
2022-09-18T00:00:03.624Z,2.25
2022-09-18T00:02:31.717Z,2.38
2022-09-18T00:04:57.949Z,2.17
2022-09-18T00:07:24.150Z,2.10
2022-09-18T00:09:50.347Z,2.35
2022-09-18T00:12:16.874Z,2.20
2022-09-18T00:14:43.186Z,2.05
2022-09-18T00:17:09.421Z,2.15
2022-09-18T00:19:35.619Z,1.90
2022-09-18T00:22:01.861Z,2.20
2022-09-18T00:24:28.119Z,2.20
2022-09-18T00:26:54.392Z,1.92
2022-09-18T00:29:20.643Z,2.05
2022-09-18T00:31:46.883Z,2.40
2022-09-18T00:34:14.482Z,2.25
2022-09-18T00:36:41.027Z,2.38
2022-09-18T00:39:07.400Z,2.20
2022-09-18T00:41:37.032Z,1.88
2022-09-18T00:44:21.894Z,2.15
2022-09-18T00:46:48.561Z,2.15
2022-09-18T00:49:15.790Z,2.42
2022-09-18T00:51:42.376Z,2.08
2022-09-18T00:54:15.339Z,3.10
2022-09-18T00:56:41.592Z,2.15
2022-09-18T00:59:08.817Z,2.20
2022-09-18T01:01:35.099Z,2.13
2022-09-18T01:04:01.485Z,2.28
2022-09-18T01:06:36.526Z,2.05
2022-09-18T01:09:25.166Z,2.60
2022-09-18T01:12:12.973Z,1.90
2022-09-18T01:15:01.258Z,2.03
2022-09-18T01:17:46.318Z,2.38
2022-09-18T01:20:39.647Z,2.35
2022-09-18T01:23:17.971Z,1.90
2022-09-18T01:26:02.929Z,2.22
2022-09-18T01:28:35.799Z,2.00
2022-09-18T01:31:04.540Z,2.28
2022-09-18T01:33:43.105Z,2.20
2022-09-18T01:36:11.397Z,2.30
2022-09-18T01:38:41.036Z,2.35
2022-09-18T01:41:07.198Z,1.80
2022-09-18T01:43:34.620Z,2.55
2022-09-18T01:46:04.231Z,2.53
2022-09-18T01:48:32.054Z,2.20
2022-09-18T01:51:04.754Z,2.17
2022-09-18T01:53:33.498Z,2.05
2022-09-18T01:56:02.661Z,1.98
2022-09-18T01:58:29.155Z,2.17
2022-09-18T02:00:58.223Z,1.98
2022-09-18T02:03:26.508Z,2.28
2022-09-18T02:05:55.067Z,1.48
2022-09-18T02:08:26.528Z,2.30
2022-09-18T02:10:56.057Z,2.03
2022-09-18T02:13:24.882Z,1.77
2022-09-18T02:15:51.910Z,2.00
2022-09-18T02:18:20.974Z,1.70
2022-09-18T02:20:47.433Z,1.98
2022-09-18T02:23:14.265Z,2.15
2022-09-18T02:25:52.331Z,2.30
2022-09-18T02:28:20.385Z,1.80
2022-09-18T02:30:47.142Z,1.70
2022-09-18T02:33:23.576Z,1.95
2022-09-18T02:35:54.346Z,2.50
2022-09-18T02:38:28.411Z,2.67
2022-09-18T02:41:00.790Z,3.00
2022-09-18T02:43:32.187Z,2.72
2022-09-18T02:45:58.454Z,2.83
2022-09-18T02:48:43.558Z,3.10
2022-09-18T02:51:20.958Z,2.88
2022-09-18T02:53:51.964Z,3.38
2022-09-18T02:56:37.423Z,3.00
2022-09-18T02:59:12.420Z,3.28
2022-09-18T03:01:41.377Z,3.20
2022-09-18T03:04:10.931Z,3.40
2022-09-18T03:06:37.174Z,2.83
2022-09-18T03:09:03.474Z,3.10
2022-09-18T03:11:32.470Z,3.10
2022-09-18T03:13:58.757Z,2.83
2022-09-18T03:16:25.101Z,3.03
2022-09-18T03:18:51.417Z,2.78
2022-09-18T03:21:17.636Z,3.17
2022-09-18T03:23:45.647Z,2.83
2022-09-18T03:26:12.113Z,3.10
2022-09-18T03:28:38.383Z,3.33
2022-09-18T03:31:04.664Z,2.97
2022-09-18T03:33:30.915Z,2.97
2022-09-18T03:35:57.213Z,2.60
2022-09-18T03:38:23.400Z,3.50
2022-09-18T03:40:49.709Z,2.80
2022-09-18T03:43:15.967Z,2.88
2022-09-18T03:45:42.566Z,2.83
2022-09-18T03:48:08.754Z,3.38
2022-09-18T03:50:34.968Z,2.35
2022-09-18T03:53:01.304Z,2.63
2022-09-18T03:55:27.551Z,2.88
2022-09-18T03:57:53.816Z,2.42
2022-09-18T04:00:19.999Z,2.72
2022-09-18T04:02:46.289Z,2.90
2022-09-18T04:05:12.640Z,2.60
2022-09-18T04:07:38.854Z,2.35
2022-09-18T04:10:05.191Z,2.22
2022-09-18T04:12:31.409Z,2.30
2022-09-18T04:14:57.591Z,1.92
2022-09-18T04:17:23.815Z,2.38
2022-09-18T04:19:53.416Z,1.88
2022-09-18T04:22:20.222Z,1.70
2022-09-18T04:24:46.681Z,1.83
2022-09-18T04:27:12.974Z,1.95
2022-09-18T04:29:39.236Z,2.20
2022-09-18T04:32:05.690Z,2.33
2022-09-18T04:34:31.918Z,2.10
2022-09-18T04:36:58.099Z,2.80
2022-09-18T04:39:24.343Z,2.53
2022-09-18T04:41:51.455Z,3.05
2022-09-18T04:44:17.675Z,3.17
2022-09-18T04:46:44.090Z,3.55
2022-09-18T04:49:10.435Z,3.58
2022-09-18T04:51:36.646Z,3.90
2022-09-18T04:54:03.045Z,3.92
2022-09-18T04:56:29.396Z,4.35
2022-09-18T04:58:56.359Z,3.85
2022-09-18T05:01:22.650Z,3.70
2022-09-18T05:03:49.086Z,3.90
2022-09-18T05:06:15.336Z,4.32
2022-09-18T05:08:41.850Z,4.78
2022-09-18T05:11:08.081Z,3.92
2022-09-18T05:13:34.266Z,4.00
2022-09-18T05:16:01.111Z,3.90
2022-09-18T05:18:27.432Z,3.90
2022-09-18T05:20:54.978Z,3.17
2022-09-18T05:23:21.326Z,3.78
2022-09-18T05:25:47.602Z,3.28
2022-09-18T05:28:15.528Z,3.45
2022-09-18T05:30:41.799Z,3.05
2022-09-18T05:33:09.379Z,3.00
2022-09-18T05:35:35.970Z,2.60
2022-09-18T05:38:02.370Z,3.13
2022-09-18T05:40:31.527Z,2.55
2022-09-18T05:42:58.248Z,2.55
2022-09-18T05:45:24.820Z,2.65
2022-09-18T05:47:53.773Z,2.35
2022-09-18T05:50:21.174Z,2.05
2022-09-18T05:52:47.428Z,2.50
2022-09-18T05:55:13.666Z,2.35
2022-09-18T05:57:39.980Z,2.47
2022-09-18T06:00:06.941Z,2.38
2022-09-18T06:02:33.135Z,2.38
2022-09-18T06:04:59.443Z,2.25
2022-09-18T06:07:25.648Z,2.30
2022-09-18T06:09:51.976Z,2.33
2022-09-18T06:12:18.155Z,2.50
2022-09-18T06:14:44.361Z,2.22
2022-09-18T06:17:10.568Z,2.50
2022-09-18T06:19:36.885Z,2.67
2022-09-18T06:22:03.167Z,3.15
2022-09-18T06:24:29.544Z,2.88
2022-09-18T06:26:55.787Z,2.55
2022-09-18T06:29:21.961Z,2.30
2022-09-18T06:31:48.234Z,2.92
2022-09-18T06:34:14.495Z,2.42
2022-09-18T06:36:42.145Z,2.42
2022-09-18T06:39:08.477Z,2.80
2022-09-18T06:41:34.668Z,2.65
2022-09-18T06:44:01.039Z,3.15
2022-09-18T06:46:27.454Z,2.70
2022-09-18T06:48:53.753Z,2.60
2022-09-18T06:51:19.946Z,2.72
2022-09-18T06:53:46.152Z,3.50
2022-09-18T06:56:12.424Z,2.67
2022-09-18T06:58:38.599Z,2.72
2022-09-18T07:01:04.911Z,2.58
2022-09-18T07:03:31.153Z,2.95
2022-09-18T07:05:57.368Z,2.90
2022-09-18T07:08:23.573Z,2.40
2022-09-18T07:10:49.850Z,2.55
2022-09-18T07:13:16.021Z,2.75
2022-09-18T07:15:42.201Z,2.30
2022-09-18T07:18:09.063Z,2.50
2022-09-18T07:20:35.289Z,1.98
2022-09-18T07:23:01.842Z,2.05
2022-09-18T07:25:29.322Z,2.20
2022-09-18T07:27:55.550Z,2.35
2022-09-18T07:30:21.908Z,2.03
2022-09-18T07:32:48.761Z,2.50
2022-09-18T07:35:15.071Z,2.08
2022-09-18T07:37:41.251Z,1.95
2022-09-18T07:40:08.615Z,2.25
2022-09-18T07:42:35.594Z,2.22
2022-09-18T07:45:01.841Z,2.33
2022-09-18T07:47:28.379Z,2.00
2022-09-18T07:49:54.755Z,2.42
2022-09-18T07:52:21.315Z,2.05
2022-09-18T07:54:47.559Z,2.17
2022-09-18T07:57:13.754Z,2.10
2022-09-18T07:59:39.998Z,2.20
2022-09-18T08:02:06.371Z,1.80
2022-09-18T08:04:32.638Z,1.90
2022-09-18T08:07:03.695Z,1.60
2022-09-18T08:09:29.958Z,2.05
2022-09-18T08:11:56.411Z,1.83
2022-09-18T08:14:26.601Z,2.15
2022-09-18T08:16:55.130Z,2.00
2022-09-18T08:19:21.392Z,1.42
2022-09-18T08:21:47.608Z,1.83
2022-09-18T08:24:13.851Z,1.92
2022-09-18T08:26:40.180Z,1.70
2022-09-18T08:29:06.754Z,1.33
2022-09-18T08:31:33.234Z,1.50
2022-09-18T08:33:59.520Z,1.38
2022-09-18T08:36:25.726Z,1.60
2022-09-18T08:38:52.710Z,1.42
2022-09-18T08:41:43.151Z,1.50
2022-09-18T08:44:13.690Z,1.70
2022-09-18T08:46:39.927Z,2.10
2022-09-18T08:49:12.973Z,2.30
2022-09-18T08:51:58.078Z,2.60
2022-09-18T08:54:30.068Z,2.92
2022-09-18T08:56:57.209Z,2.80
2022-09-18T08:59:34.906Z,3.22
2022-09-18T09:02:10.056Z,3.08
2022-09-18T09:04:36.485Z,3.35
2022-09-18T09:07:21.548Z,3.00
2022-09-18T09:10:04.124Z,3.83
2022-09-18T09:12:41.929Z,3.13
2022-09-18T09:15:21.473Z,2.95
2022-09-18T09:18:06.815Z,2.75
2022-09-18T09:20:39.988Z,3.40
2022-09-18T09:23:15.407Z,2.90
2022-09-18T09:25:49.579Z,2.85
2022-09-18T09:28:21.771Z,2.65
2022-09-18T09:30:51.954Z,2.03
2022-09-18T09:33:27.795Z,2.63
2022-09-18T09:35:55.502Z,1.88
2022-09-18T09:38:24.462Z,2.13
2022-09-18T09:40:52.522Z,2.00
2022-09-18T09:43:24.871Z,2.13
2022-09-18T09:45:52.389Z,1.90
2022-09-18T09:48:21.380Z,2.00
2022-09-18T09:50:51.285Z,2.28
2022-09-18T09:53:17.474Z,2.17
2022-09-18T09:55:50.714Z,2.03
2022-09-18T09:58:31.810Z,2.40
2022-09-18T10:00:58.020Z,2.13
2022-09-18T10:03:27.533Z,2.00
2022-09-18T10:06:14.972Z,2.38
2022-09-18T10:08:50.398Z,2.30
2022-09-18T10:11:17.050Z,1.92
2022-09-18T10:13:43.306Z,2.28
2022-09-18T10:16:15.488Z,2.05
2022-09-18T10:18:43.325Z,2.40
2022-09-18T10:21:14.161Z,2.22
2022-09-18T10:23:44.724Z,2.33
2022-09-18T10:26:17.779Z,2.20
2022-09-18T10:28:44.027Z,2.10
2022-09-18T10:31:12.066Z,2.00
2022-09-18T10:33:42.755Z,2.10
2022-09-18T10:36:08.986Z,2.00
2022-09-18T10:38:37.580Z,2.08
2022-09-18T10:41:18.052Z,2.60
2022-09-18T10:44:03.528Z,1.85
2022-09-18T10:46:31.601Z,2.33
2022-09-18T10:48:59.419Z,2.13
2022-09-18T10:51:26.652Z,2.20
2022-09-18T10:54:04.361Z,2.15
2022-09-18T10:56:30.964Z,2.25
2022-09-18T10:59:12.387Z,2.10
2022-09-18T11:01:42.709Z,1.80
2022-09-18T11:04:15.588Z,2.05
2022-09-18T11:06:43.709Z,1.83
2022-09-18T11:09:10.663Z,1.73
2022-09-18T11:11:38.399Z,1.77
2022-09-18T11:14:16.175Z,1.50
2022-09-18T11:16:43.305Z,1.60
2022-09-18T11:19:16.230Z,1.90
2022-09-18T11:21:44.116Z,1.77
2022-09-18T11:24:17.869Z,1.63
2022-09-18T11:26:51.455Z,1.73
2022-09-18T11:29:27.136Z,2.20
2022-09-18T11:31:56.108Z,2.15
2022-09-18T11:34:45.284Z,2.60
2022-09-18T11:37:12.375Z,2.00
2022-09-18T11:39:40.699Z,2.70
2022-09-18T11:42:13.321Z,2.30
2022-09-18T11:44:40.379Z,2.35
2022-09-18T11:47:25.641Z,2.28
2022-09-18T11:49:51.830Z,2.28
2022-09-18T11:52:20.464Z,2.47
2022-09-18T11:54:51.880Z,2.30
2022-09-18T11:57:32.465Z,2.05
2022-09-18T12:00:03.722Z,2.50
2022-09-18T12:02:44.036Z,2.42
2022-09-18T12:05:17.595Z,2.70
2022-09-18T12:08:02.787Z,2.88
2022-09-18T12:10:28.978Z,2.65
2022-09-18T12:13:13.770Z,2.55
2022-09-18T12:15:41.413Z,2.45
2022-09-18T12:18:16.913Z,2.55
2022-09-18T12:20:48.512Z,2.80
2022-09-18T12:25:43.613Z,2.72
2022-09-18T12:28:23.142Z,2.67
2022-09-18T12:30:53.708Z,2.53
2022-09-18T12:33:24.752Z,2.65
2022-09-18T12:35:50.937Z,2.42
2022-09-18T12:38:29.439Z,2.78
2022-09-18T12:41:15.271Z,2.47
2022-09-18T12:44:07.837Z,2.40
2022-09-18T12:46:34.045Z,2.00
2022-09-18T12:49:18.430Z,2.40
2022-09-18T12:51:47.062Z,2.42
2022-09-18T12:54:13.234Z,2.78
2022-09-18T12:56:48.275Z,2.28
2022-09-18T12:59:33.490Z,2.10
2022-09-18T13:02:22.742Z,2.70
2022-09-18T13:05:11.933Z,2.53
2022-09-18T13:07:38.124Z,2.47
2022-09-18T13:10:13.821Z,2.45
2022-09-18T13:13:00.371Z,2.50
2022-09-18T13:15:29.305Z,2.65
2022-09-18T13:18:22.753Z,2.60
2022-09-18T13:20:49.609Z,2.45
2022-09-18T13:23:18.151Z,2.65
2022-09-18T13:25:47.261Z,2.78
2022-09-18T13:28:15.058Z,2.45
2022-09-18T13:30:41.463Z,2.50
2022-09-18T13:33:22.014Z,2.70
2022-09-18T13:35:52.858Z,2.78
2022-09-18T13:38:20.661Z,2.28
2022-09-18T13:40:48.458Z,3.03
2022-09-18T13:43:17.581Z,2.80
2022-09-18T13:45:43.785Z,2.97
2022-09-18T13:48:19.108Z,2.90
2022-09-18T13:50:56.043Z,2.55
2022-09-18T13:53:43.529Z,2.85
2022-09-18T13:56:13.523Z,2.70
2022-09-18T13:58:50.085Z,2.95
2022-09-18T14:01:35.444Z,2.60
2022-09-18T14:04:01.842Z,2.05
2022-09-18T14:06:36.801Z,1.90
2022-09-18T14:09:35.188Z,2.00
2022-09-18T14:12:10.414Z,2.30
2022-09-18T14:14:38.215Z,2.47
2022-09-18T14:17:14.858Z,2.20
2022-09-18T14:19:43.829Z,2.25
2022-09-18T14:22:28.236Z,2.70
2022-09-18T14:24:56.784Z,2.90
2022-09-18T14:27:26.100Z,1.80
2022-09-18T14:29:56.629Z,1.80
2022-09-18T14:32:24.472Z,2.38
2022-09-18T14:34:54.712Z,1.70
2022-09-18T14:37:24.508Z,1.50
2022-09-18T14:39:50.995Z,1.70
2022-09-18T14:42:23.238Z,1.85
2022-09-18T14:44:52.399Z,1.65
2022-09-18T14:47:23.407Z,1.77
2022-09-18T14:49:49.885Z,1.50
2022-09-18T14:52:23.692Z,1.75
2022-09-18T14:54:52.712Z,1.73
2022-09-18T14:57:20.724Z,1.50
2022-09-18T14:59:50.845Z,1.85
2022-09-18T15:02:27.333Z,1.80
2022-09-18T15:04:53.669Z,1.50
2022-09-18T15:07:20.817Z,1.77
2022-09-18T15:09:48.943Z,1.60
2022-09-18T15:12:17.799Z,1.70
2022-09-18T15:14:47.485Z,1.38
2022-09-18T15:17:24.247Z,1.60
2022-09-18T15:20:00.662Z,1.30
2022-09-18T15:22:27.501Z,1.30
2022-09-18T15:24:54.487Z,1.60
2022-09-18T15:27:21.621Z,1.30
2022-09-18T15:29:50.207Z,1.67
2022-09-18T15:32:20.881Z,1.70
2022-09-18T15:34:48.472Z,1.50
2022-09-18T15:37:19.841Z,1.60
2022-09-18T15:39:51.884Z,1.40
2022-09-18T15:42:33.469Z,1.58
2022-09-18T15:44:59.664Z,1.60
2022-09-18T15:47:25.870Z,1.50
2022-09-18T15:49:52.595Z,1.60
2022-09-18T15:52:34.972Z,1.60
2022-09-18T15:55:03.294Z,1.65
2022-09-18T15:57:29.526Z,1.77
2022-09-18T15:59:57.308Z,1.70
2022-09-18T16:02:29.059Z,1.70
2022-09-18T16:04:55.870Z,1.50
2022-09-18T16:07:24.421Z,2.15
2022-09-18T16:09:51.062Z,2.90
2022-09-18T16:12:29.275Z,1.63
2022-09-18T16:15:00.254Z,1.70
2022-09-18T16:17:29.307Z,1.15
2022-09-18T16:19:56.822Z,0.90
2022-09-18T16:22:23.481Z,0.98
2022-09-18T16:24:49.901Z,1.00
2022-09-18T16:27:22.657Z,0.93
2022-09-18T16:29:49.887Z,0.80
2022-09-18T16:32:16.348Z,0.90
2022-09-18T16:34:45.524Z,0.75
2022-09-18T16:37:12.324Z,0.98
2022-09-18T16:39:38.959Z,0.93
2022-09-18T16:42:13.947Z,1.00
2022-09-18T16:44:40.147Z,0.70
2022-09-18T16:47:08.316Z,0.80
2022-09-18T16:49:36.113Z,0.93
2022-09-18T16:52:02.478Z,1.52
2022-09-18T16:54:28.806Z,4.13
2022-09-18T16:57:05.738Z,1.13
2022-09-18T16:59:32.462Z,0.80
2022-09-18T17:02:04.158Z,0.93
2022-09-18T17:04:31.579Z,0.93
2022-09-18T17:06:57.983Z,0.70
2022-09-18T17:09:24.737Z,1.02
2022-09-18T17:11:51.690Z,0.82
2022-09-18T17:14:17.985Z,0.75
2022-09-18T17:16:45.147Z,1.35
2022-09-18T17:19:11.960Z,1.13
2022-09-18T17:21:38.807Z,0.90
2022-09-18T17:24:05.243Z,0.80
2022-09-18T17:26:31.503Z,1.27
2022-09-18T17:28:58.281Z,1.10
2022-09-18T17:31:26.304Z,1.00
2022-09-18T17:33:53.110Z,1.20
2022-09-18T17:36:20.017Z,1.20
2022-09-18T17:38:46.877Z,0.95
2022-09-18T17:41:13.837Z,1.40
2022-09-18T17:43:40.557Z,1.35
2022-09-18T17:46:07.880Z,1.35
2022-09-18T17:48:36.046Z,1.20
2022-09-18T17:51:06.954Z,1.10
2022-09-18T17:53:33.822Z,1.10
2022-09-18T17:56:00.348Z,1.20
2022-09-18T17:58:27.659Z,1.02
2022-09-18T18:00:53.978Z,1.23
2022-09-18T18:03:20.203Z,1.05
2022-09-18T18:05:53.326Z,1.20
2022-09-18T18:08:19.869Z,1.15
2022-09-18T18:10:47.078Z,1.30
2022-09-18T18:13:17.696Z,1.35
2022-09-18T18:15:44.014Z,1.52
2022-09-18T18:18:11.425Z,1.55
2022-09-18T18:20:37.887Z,1.20
2022-09-18T18:23:05.290Z,1.42
2022-09-18T18:25:34.315Z,1.70
2022-09-18T18:28:01.640Z,1.50
2022-09-18T18:30:28.163Z,1.58
2022-09-18T18:32:56.015Z,1.80
2022-09-18T18:35:22.218Z,1.70
2022-09-18T18:37:48.583Z,2.05
2022-09-18T18:40:15.510Z,1.75
2022-09-18T18:42:41.718Z,1.60
2022-09-18T18:45:08.167Z,1.98
2022-09-18T18:47:34.390Z,1.90
2022-09-18T18:50:00.685Z,1.77
2022-09-18T18:52:26.952Z,1.60
2022-09-18T18:54:53.429Z,1.50
2022-09-18T18:57:21.475Z,1.55
2022-09-18T18:59:47.742Z,1.25
2022-09-18T19:02:14.405Z,1.20
2022-09-18T19:04:41.481Z,1.17
2022-09-18T19:07:08.068Z,1.48
2022-09-18T19:09:34.263Z,1.35
2022-09-18T19:12:00.661Z,1.40
2022-09-18T19:14:31.470Z,1.33
2022-09-18T19:16:57.979Z,1.58
2022-09-18T19:19:25.510Z,1.73
2022-09-18T19:21:52.627Z,1.20
2022-09-18T19:24:19.094Z,1.20
2022-09-18T19:26:45.657Z,1.20
2022-09-18T19:29:13.523Z,1.30
2022-09-18T19:31:40.973Z,1.30
2022-09-18T19:34:07.395Z,1.38
2022-09-18T19:36:34.169Z,1.52
2022-09-18T19:39:01.688Z,1.20
2022-09-18T19:41:38.892Z,1.35
2022-09-18T19:44:11.286Z,1.27
2022-09-18T19:46:38.403Z,1.13
2022-09-18T19:49:04.797Z,1.25
2022-09-18T19:51:33.434Z,1.23
2022-09-18T19:53:59.809Z,1.30
2022-09-18T19:56:42.039Z,1.65
2022-09-18T19:59:09.809Z,1.40
2022-09-18T20:01:36.408Z,1.70
2022-09-18T20:04:02.819Z,1.55
2022-09-18T20:06:30.721Z,1.63
2022-09-18T20:08:56.928Z,1.58
2022-09-18T20:11:23.162Z,1.58
2022-09-18T20:13:53.432Z,1.50
2022-09-18T20:16:19.845Z,2.00
2022-09-18T20:18:47.480Z,1.63
2022-09-18T20:21:14.979Z,1.55
2022-09-18T20:23:41.176Z,1.73
2022-09-18T20:26:11.785Z,1.67
2022-09-18T20:28:38.222Z,1.42
2022-09-18T20:31:06.042Z,1.80
2022-09-18T20:33:32.454Z,1.60
2022-09-18T20:35:59.013Z,1.60
2022-09-18T20:38:26.447Z,1.65
2022-09-18T20:40:56.881Z,1.98
2022-09-18T20:43:23.098Z,1.65
2022-09-18T20:46:14.036Z,1.80
2022-09-18T20:48:41.296Z,1.80
2022-09-18T20:51:09.067Z,1.50
2022-09-18T20:53:36.468Z,1.55
2022-09-18T20:56:04.710Z,1.85
2022-09-18T20:58:35.036Z,1.48
2022-09-18T21:01:08.252Z,1.40
2022-09-18T21:03:35.104Z,1.40
2022-09-18T21:06:21.340Z,1.52
2022-09-18T21:08:48.597Z,1.70
2022-09-18T21:11:15.818Z,1.20
2022-09-18T21:13:47.271Z,1.52
2022-09-18T21:16:14.570Z,1.63
2022-09-18T21:18:41.202Z,1.77
2022-09-18T21:21:09.297Z,1.58
2022-09-18T21:23:55.976Z,1.70
2022-09-18T21:26:26.512Z,1.65
2022-09-18T21:28:53.823Z,1.77
2022-09-18T21:31:20.607Z,1.50
2022-09-18T21:33:47.172Z,1.55
2022-09-18T21:36:13.422Z,1.55
2022-09-18T21:38:41.065Z,1.77
2022-09-18T21:41:11.235Z,2.00
2022-09-18T21:43:38.111Z,1.50
2022-09-18T21:46:05.354Z,1.73
2022-09-18T21:48:32.366Z,1.80
2022-09-18T21:51:02.111Z,1.60
2022-09-18T21:53:29.317Z,1.70
2022-09-18T21:56:00.431Z,1.80
2022-09-18T21:58:26.694Z,1.50
2022-09-18T22:00:53.042Z,1.40
2022-09-18T22:03:19.877Z,1.50
2022-09-18T22:05:46.723Z,1.75
2022-09-18T22:08:13.020Z,1.85
2022-09-18T22:10:39.242Z,1.50
2022-09-18T22:13:05.816Z,1.83
2022-09-18T22:15:32.158Z,1.67
2022-09-18T22:17:58.499Z,2.47
2022-09-18T22:20:25.146Z,1.50
2022-09-18T22:22:51.331Z,2.10
2022-09-18T22:25:17.554Z,2.10
2022-09-18T22:27:44.113Z,1.83
2022-09-18T22:30:10.603Z,1.83
2022-09-18T22:32:36.865Z,1.85
2022-09-18T22:35:03.935Z,1.23
2022-09-18T22:37:30.463Z,1.63
2022-09-18T22:39:56.860Z,2.17
2022-09-18T22:42:23.071Z,1.70
2022-09-18T22:44:49.282Z,2.13
2022-09-18T22:47:15.528Z,1.70
2022-09-18T22:49:41.726Z,1.88
2022-09-18T22:52:07.936Z,1.95
2022-09-18T22:54:34.208Z,1.90
2022-09-18T22:57:00.446Z,1.92
2022-09-18T22:59:27.343Z,2.13
2022-09-18T23:02:04.012Z,2.05
2022-09-18T23:04:31.528Z,2.08
2022-09-18T23:06:59.082Z,2.05
2022-09-18T23:09:25.670Z,1.95
2022-09-18T23:11:53.090Z,1.92
2022-09-18T23:14:21.388Z,2.13
2022-09-18T23:16:48.845Z,2.22
2022-09-18T23:19:19.613Z,1.90
2022-09-18T23:21:45.868Z,2.00
2022-09-18T23:24:12.455Z,1.75
2022-09-18T23:26:40.053Z,2.00
2022-09-18T23:29:08.035Z,1.67
2022-09-18T23:31:35.973Z,1.80
2022-09-18T23:34:03.329Z,2.33
2022-09-18T23:36:31.119Z,2.25
2022-09-18T23:38:58.556Z,1.90
2022-09-18T23:41:25.423Z,1.80
2022-09-18T23:43:53.026Z,2.17
2022-09-18T23:46:20.075Z,2.08
2022-09-18T23:48:47.497Z,1.70
2022-09-18T23:51:15.997Z,1.58
2022-09-18T23:53:42.187Z,1.95
2022-09-18T23:56:10.125Z,1.88
2022-09-18T23:58:36.711Z,2.00
